sensor_id;sensor_type;location;lat;lon;timestamp;P1;durP1;ratioP1;P2;durP2;ratioP2
29712;SDS011;16623;53.632;10.016;2024-02-28T00:02:10;40.20;;;23.65;;
29712;SDS011;16623;53.632;10.016;2024-02-28T00:04:36;38.15;;;22.40;;
29712;SDS011;16623;53.632;10.016;2024-02-28T00:07:02;33.15;;;20.73;;
29712;SDS011;16623;53.632;10.016;2024-02-28T00:09:27;35.35;;;21.45;;
29712;SDS011;16623;53.632;10.016;2024-02-28T00:11:53;36.58;;;22.13;;
29712;SDS011;16623;53.632;10.016;2024-02-28T00:14:18;41.17;;;21.63;;
29712;SDS011;16623;53.632;10.016;2024-02-28T00:16:44;43.80;;;23.80;;
29712;SDS011;16623;53.632;10.016;2024-02-28T00:19:11;42.03;;;24.42;;
29712;SDS011;16623;53.632;10.016;2024-02-28T00:21:37;43.38;;;24.85;;
29712;SDS011;16623;53.632;10.016;2024-02-28T00:24:04;45.25;;;25.55;;
29712;SDS011;16623;53.632;10.016;2024-02-28T00:26:30;48.15;;;24.67;;
29712;SDS011;16623;53.632;10.016;2024-02-28T00:28:56;43.92;;;25.85;;
29712;SDS011;16623;53.632;10.016;2024-02-28T00:31:21;44.65;;;25.10;;
29712;SDS011;16623;53.632;10.016;2024-02-28T00:33:47;44.97;;;26.27;;
29712;SDS011;16623;53.632;10.016;2024-02-28T00:36:13;43.22;;;25.40;;
29712;SDS011;16623;53.632;10.016;2024-02-28T00:38:40;48.20;;;27.48;;
29712;SDS011;16623;53.632;10.016;2024-02-28T00:41:06;50.80;;;27.55;;
29712;SDS011;16623;53.632;10.016;2024-02-28T00:43:31;50.45;;;27.63;;
29712;SDS011;16623;53.632;10.016;2024-02-28T00:45:57;52.05;;;29.30;;
29712;SDS011;16623;53.632;10.016;2024-02-28T00:48:23;54.25;;;28.67;;
29712;SDS011;16623;53.632;10.016;2024-02-28T00:50:49;51.20;;;28.98;;
29712;SDS011;16623;53.632;10.016;2024-02-28T00:53:15;49.00;;;28.35;;
29712;SDS011;16623;53.632;10.016;2024-02-28T00:55:40;51.00;;;27.88;;
29712;SDS011;16623;53.632;10.016;2024-02-28T00:58:05;49.40;;;26.33;;
29712;SDS011;16623;53.632;10.016;2024-02-28T01:00:31;51.30;;;26.75;;
29712;SDS011;16623;53.632;10.016;2024-02-28T01:02:56;52.47;;;27.30;;
29712;SDS011;16623;53.632;10.016;2024-02-28T01:05:22;48.35;;;25.95;;
29712;SDS011;16623;53.632;10.016;2024-02-28T01:07:47;46.63;;;26.35;;
29712;SDS011;16623;53.632;10.016;2024-02-28T01:10:13;48.88;;;25.60;;
29712;SDS011;16623;53.632;10.016;2024-02-28T01:12:39;51.72;;;27.05;;
29712;SDS011;16623;53.632;10.016;2024-02-28T01:15:04;48.22;;;25.15;;
29712;SDS011;16623;53.632;10.016;2024-02-28T01:17:30;46.80;;;24.48;;
29712;SDS011;16623;53.632;10.016;2024-02-28T01:19:56;51.33;;;26.83;;
29712;SDS011;16623;53.632;10.016;2024-02-28T01:22:22;48.55;;;26.17;;
29712;SDS011;16623;53.632;10.016;2024-02-28T01:24:47;53.65;;;26.40;;
29712;SDS011;16623;53.632;10.016;2024-02-28T01:27:13;55.47;;;27.23;;
29712;SDS011;16623;53.632;10.016;2024-02-28T01:29:39;48.33;;;25.67;;
29712;SDS011;16623;53.632;10.016;2024-02-28T01:32:04;48.38;;;26.15;;
29712;SDS011;16623;53.632;10.016;2024-02-28T01:34:30;47.03;;;25.95;;
29712;SDS011;16623;53.632;10.016;2024-02-28T01:36:55;48.70;;;25.65;;
29712;SDS011;16623;53.632;10.016;2024-02-28T01:39:20;45.15;;;24.25;;
29712;SDS011;16623;53.632;10.016;2024-02-28T01:41:55;51.20;;;26.35;;
29712;SDS011;16623;53.632;10.016;2024-02-28T01:44:22;47.50;;;26.40;;
29712;SDS011;16623;53.632;10.016;2024-02-28T01:46:47;45.38;;;26.10;;
29712;SDS011;16623;53.632;10.016;2024-02-28T01:49:13;47.33;;;26.50;;
29712;SDS011;16623;53.632;10.016;2024-02-28T01:51:40;49.95;;;24.63;;
29712;SDS011;16623;53.632;10.016;2024-02-28T01:54:07;43.10;;;24.25;;
29712;SDS011;16623;53.632;10.016;2024-02-28T01:56:33;47.63;;;23.95;;
29712;SDS011;16623;53.632;10.016;2024-02-28T01:59:00;44.80;;;23.55;;
29712;SDS011;16623;53.632;10.016;2024-02-28T02:01:27;44.67;;;24.05;;
29712;SDS011;16623;53.632;10.016;2024-02-28T02:03:53;51.85;;;26.35;;
29712;SDS011;16623;53.632;10.016;2024-02-28T02:06:19;45.80;;;23.75;;
29712;SDS011;16623;53.632;10.016;2024-02-28T02:08:45;45.65;;;23.48;;
29712;SDS011;16623;53.632;10.016;2024-02-28T02:11:11;47.60;;;25.10;;
29712;SDS011;16623;53.632;10.016;2024-02-28T02:13:51;44.58;;;22.63;;
29712;SDS011;16623;53.632;10.016;2024-02-28T02:16:20;43.83;;;22.73;;
29712;SDS011;16623;53.632;10.016;2024-02-28T02:18:52;43.10;;;22.80;;
29712;SDS011;16623;53.632;10.016;2024-02-28T02:21:20;44.75;;;23.98;;
29712;SDS011;16623;53.632;10.016;2024-02-28T02:23:51;40.20;;;20.90;;
29712;SDS011;16623;53.632;10.016;2024-02-28T02:26:17;43.35;;;21.67;;
29712;SDS011;16623;53.632;10.016;2024-02-28T02:28:43;43.10;;;20.90;;
29712;SDS011;16623;53.632;10.016;2024-02-28T02:31:10;38.55;;;21.92;;
29712;SDS011;16623;53.632;10.016;2024-02-28T02:33:36;42.20;;;21.52;;
29712;SDS011;16623;53.632;10.016;2024-02-28T02:36:02;47.42;;;22.48;;
29712;SDS011;16623;53.632;10.016;2024-02-28T02:38:28;47.28;;;23.92;;
29712;SDS011;16623;53.632;10.016;2024-02-28T02:40:54;43.90;;;22.27;;
29712;SDS011;16623;53.632;10.016;2024-02-28T02:43:19;44.42;;;22.98;;
29712;SDS011;16623;53.632;10.016;2024-02-28T02:45:45;44.55;;;22.10;;
29712;SDS011;16623;53.632;10.016;2024-02-28T02:48:10;41.53;;;22.08;;
29712;SDS011;16623;53.632;10.016;2024-02-28T02:50:36;43.65;;;20.73;;
29712;SDS011;16623;53.632;10.016;2024-02-28T02:53:02;41.55;;;20.00;;
29712;SDS011;16623;53.632;10.016;2024-02-28T02:55:28;42.10;;;21.65;;
29712;SDS011;16623;53.632;10.016;2024-02-28T02:57:54;38.83;;;20.38;;
29712;SDS011;16623;53.632;10.016;2024-02-28T03:00:20;39.30;;;20.30;;
29712;SDS011;16623;53.632;10.016;2024-02-28T03:02:46;42.30;;;21.73;;
29712;SDS011;16623;53.632;10.016;2024-02-28T03:05:12;39.35;;;20.88;;
29712;SDS011;16623;53.632;10.016;2024-02-28T03:07:37;39.90;;;20.30;;
29712;SDS011;16623;53.632;10.016;2024-02-28T03:10:03;41.35;;;21.25;;
29712;SDS011;16623;53.632;10.016;2024-02-28T03:12:28;41.08;;;20.73;;
29712;SDS011;16623;53.632;10.016;2024-02-28T03:14:54;43.28;;;21.40;;
29712;SDS011;16623;53.632;10.016;2024-02-28T03:17:20;41.88;;;19.88;;
29712;SDS011;16623;53.632;10.016;2024-02-28T03:19:46;40.58;;;19.52;;
29712;SDS011;16623;53.632;10.016;2024-02-28T03:22:12;38.80;;;18.45;;
29712;SDS011;16623;53.632;10.016;2024-02-28T03:24:38;37.97;;;19.35;;
29712;SDS011;16623;53.632;10.016;2024-02-28T03:27:03;41.05;;;18.50;;
29712;SDS011;16623;53.632;10.016;2024-02-28T03:29:29;36.95;;;18.38;;
29712;SDS011;16623;53.632;10.016;2024-02-28T03:31:55;40.25;;;20.67;;
29712;SDS011;16623;53.632;10.016;2024-02-28T03:34:21;35.90;;;17.90;;
29712;SDS011;16623;53.632;10.016;2024-02-28T03:36:47;37.55;;;18.17;;
29712;SDS011;16623;53.632;10.016;2024-02-28T03:39:12;37.60;;;17.77;;
29712;SDS011;16623;53.632;10.016;2024-02-28T03:41:38;44.88;;;19.20;;
29712;SDS011;16623;53.632;10.016;2024-02-28T03:44:04;34.05;;;18.02;;
29712;SDS011;16623;53.632;10.016;2024-02-28T03:46:30;38.35;;;18.17;;
29712;SDS011;16623;53.632;10.016;2024-02-28T03:48:56;34.03;;;16.85;;
29712;SDS011;16623;53.632;10.016;2024-02-28T03:51:21;35.95;;;19.55;;
29712;SDS011;16623;53.632;10.016;2024-02-28T03:53:47;38.15;;;18.95;;
29712;SDS011;16623;53.632;10.016;2024-02-28T03:56:12;42.65;;;18.73;;
29712;SDS011;16623;53.632;10.016;2024-02-28T03:58:39;34.15;;;18.15;;
29712;SDS011;16623;53.632;10.016;2024-02-28T04:01:05;36.28;;;18.60;;
29712;SDS011;16623;53.632;10.016;2024-02-28T04:03:31;37.58;;;18.95;;
29712;SDS011;16623;53.632;10.016;2024-02-28T04:05:56;39.28;;;19.30;;
29712;SDS011;16623;53.632;10.016;2024-02-28T04:08:22;36.05;;;19.55;;
29712;SDS011;16623;53.632;10.016;2024-02-28T04:10:47;35.60;;;17.10;;
29712;SDS011;16623;53.632;10.016;2024-02-28T04:13:15;40.03;;;19.08;;
29712;SDS011;16623;53.632;10.016;2024-02-28T04:15:40;37.47;;;17.38;;
29712;SDS011;16623;53.632;10.016;2024-02-28T04:18:06;39.17;;;18.33;;
29712;SDS011;16623;53.632;10.016;2024-02-28T04:20:32;35.38;;;18.10;;
29712;SDS011;16623;53.632;10.016;2024-02-28T04:22:57;38.05;;;17.73;;
29712;SDS011;16623;53.632;10.016;2024-02-28T04:25:23;34.08;;;16.95;;
29712;SDS011;16623;53.632;10.016;2024-02-28T04:27:48;37.35;;;18.80;;
29712;SDS011;16623;53.632;10.016;2024-02-28T04:30:14;34.22;;;17.50;;
29712;SDS011;16623;53.632;10.016;2024-02-28T04:32:40;41.25;;;18.92;;
29712;SDS011;16623;53.632;10.016;2024-02-28T04:35:05;42.45;;;18.98;;
29712;SDS011;16623;53.632;10.016;2024-02-28T04:37:31;35.60;;;17.60;;
29712;SDS011;16623;53.632;10.016;2024-02-28T04:39:57;38.50;;;17.42;;
29712;SDS011;16623;53.632;10.016;2024-02-28T04:42:23;39.08;;;18.70;;
29712;SDS011;16623;53.632;10.016;2024-02-28T04:44:48;34.63;;;17.77;;
29712;SDS011;16623;53.632;10.016;2024-02-28T04:47:14;39.47;;;17.85;;
29712;SDS011;16623;53.632;10.016;2024-02-28T04:49:39;39.42;;;18.02;;
29712;SDS011;16623;53.632;10.016;2024-02-28T04:52:05;35.70;;;18.33;;
29712;SDS011;16623;53.632;10.016;2024-02-28T04:54:31;34.40;;;17.27;;
29712;SDS011;16623;53.632;10.016;2024-02-28T04:56:57;38.47;;;17.80;;
29712;SDS011;16623;53.632;10.016;2024-02-28T04:59:22;46.22;;;18.77;;
29712;SDS011;16623;53.632;10.016;2024-02-28T05:01:48;43.38;;;20.17;;
29712;SDS011;16623;53.632;10.016;2024-02-28T05:04:13;37.05;;;18.05;;
29712;SDS011;16623;53.632;10.016;2024-02-28T05:06:39;38.72;;;18.67;;
29712;SDS011;16623;53.632;10.016;2024-02-28T05:09:05;36.55;;;17.85;;
29712;SDS011;16623;53.632;10.016;2024-02-28T05:11:30;40.97;;;19.25;;
29712;SDS011;16623;53.632;10.016;2024-02-28T05:13:56;37.17;;;17.73;;
29712;SDS011;16623;53.632;10.016;2024-02-28T05:16:21;39.45;;;19.00;;
29712;SDS011;16623;53.632;10.016;2024-02-28T05:18:47;38.05;;;18.48;;
29712;SDS011;16623;53.632;10.016;2024-02-28T05:21:13;40.10;;;19.02;;
29712;SDS011;16623;53.632;10.016;2024-02-28T05:23:39;39.92;;;19.40;;
29712;SDS011;16623;53.632;10.016;2024-02-28T05:26:05;40.90;;;20.15;;
29712;SDS011;16623;53.632;10.016;2024-02-28T05:28:32;40.85;;;19.85;;
29712;SDS011;16623;53.632;10.016;2024-02-28T05:31:10;43.15;;;19.77;;
29712;SDS011;16623;53.632;10.016;2024-02-28T05:33:50;42.47;;;19.88;;
29712;SDS011;16623;53.632;10.016;2024-02-28T05:36:17;46.78;;;21.25;;
29712;SDS011;16623;53.632;10.016;2024-02-28T05:38:43;40.85;;;20.25;;
29712;SDS011;16623;53.632;10.016;2024-02-28T05:41:09;40.63;;;19.60;;
29712;SDS011;16623;53.632;10.016;2024-02-28T05:43:36;42.67;;;20.42;;
29712;SDS011;16623;53.632;10.016;2024-02-28T05:46:03;44.60;;;20.67;;
29712;SDS011;16623;53.632;10.016;2024-02-28T05:48:28;44.47;;;20.75;;
29712;SDS011;16623;53.632;10.016;2024-02-28T05:50:54;39.35;;;20.48;;
29712;SDS011;16623;53.632;10.016;2024-02-28T05:53:20;40.40;;;19.98;;
29712;SDS011;16623;53.632;10.016;2024-02-28T05:55:46;41.65;;;20.13;;
29712;SDS011;16623;53.632;10.016;2024-02-28T05:58:12;42.90;;;20.05;;
29712;SDS011;16623;53.632;10.016;2024-02-28T06:00:38;44.05;;;22.17;;
29712;SDS011;16623;53.632;10.016;2024-02-28T06:03:04;44.53;;;21.30;;
29712;SDS011;16623;53.632;10.016;2024-02-28T06:05:30;43.80;;;20.27;;
29712;SDS011;16623;53.632;10.016;2024-02-28T06:07:56;45.75;;;20.85;;
29712;SDS011;16623;53.632;10.016;2024-02-28T06:10:21;41.15;;;20.48;;
29712;SDS011;16623;53.632;10.016;2024-02-28T06:12:47;45.33;;;20.50;;
29712;SDS011;16623;53.632;10.016;2024-02-28T06:15:12;44.20;;;20.15;;
29712;SDS011;16623;53.632;10.016;2024-02-28T06:17:38;40.85;;;20.25;;
29712;SDS011;16623;53.632;10.016;2024-02-28T06:20:04;47.00;;;22.27;;
29712;SDS011;16623;53.632;10.016;2024-02-28T06:22:31;41.90;;;20.77;;
29712;SDS011;16623;53.632;10.016;2024-02-28T06:24:57;43.75;;;21.35;;
29712;SDS011;16623;53.632;10.016;2024-02-28T06:27:24;37.35;;;19.48;;
29712;SDS011;16623;53.632;10.016;2024-02-28T06:29:51;40.22;;;20.42;;
29712;SDS011;16623;53.632;10.016;2024-02-28T06:32:17;36.88;;;18.67;;
29712;SDS011;16623;53.632;10.016;2024-02-28T06:34:42;43.05;;;20.02;;
29712;SDS011;16623;53.632;10.016;2024-02-28T06:37:08;36.17;;;18.73;;
29712;SDS011;16623;53.632;10.016;2024-02-28T06:39:34;44.03;;;19.52;;
29712;SDS011;16623;53.632;10.016;2024-02-28T06:42:00;39.88;;;19.88;;
29712;SDS011;16623;53.632;10.016;2024-02-28T06:44:25;41.47;;;19.30;;
29712;SDS011;16623;53.632;10.016;2024-02-28T06:46:51;37.28;;;18.70;;
29712;SDS011;16623;53.632;10.016;2024-02-28T06:49:16;41.67;;;19.30;;
29712;SDS011;16623;53.632;10.016;2024-02-28T06:51:45;35.40;;;17.55;;
29712;SDS011;16623;53.632;10.016;2024-02-28T06:54:10;33.83;;;18.42;;
29712;SDS011;16623;53.632;10.016;2024-02-28T06:56:36;32.47;;;16.83;;
29712;SDS011;16623;53.632;10.016;2024-02-28T06:59:01;33.33;;;17.13;;
29712;SDS011;16623;53.632;10.016;2024-02-28T07:01:28;30.90;;;16.83;;
29712;SDS011;16623;53.632;10.016;2024-02-28T07:03:54;33.92;;;16.58;;
29712;SDS011;16623;53.632;10.016;2024-02-28T07:06:19;29.08;;;15.93;;
29712;SDS011;16623;53.632;10.016;2024-02-28T07:08:46;29.42;;;15.45;;
29712;SDS011;16623;53.632;10.016;2024-02-28T07:11:15;26.73;;;13.40;;
29712;SDS011;16623;53.632;10.016;2024-02-28T07:13:41;30.88;;;16.08;;
29712;SDS011;16623;53.632;10.016;2024-02-28T07:16:06;32.90;;;16.25;;
29712;SDS011;16623;53.632;10.016;2024-02-28T07:18:32;26.90;;;14.25;;
29712;SDS011;16623;53.632;10.016;2024-02-28T07:20:58;24.60;;;14.32;;
29712;SDS011;16623;53.632;10.016;2024-02-28T07:23:23;24.98;;;14.90;;
29712;SDS011;16623;53.632;10.016;2024-02-28T07:25:49;25.27;;;15.10;;
29712;SDS011;16623;53.632;10.016;2024-02-28T07:28:15;26.42;;;14.35;;
29712;SDS011;16623;53.632;10.016;2024-02-28T07:30:40;27.00;;;14.90;;
29712;SDS011;16623;53.632;10.016;2024-02-28T07:33:07;25.58;;;13.95;;
29712;SDS011;16623;53.632;10.016;2024-02-28T07:35:43;25.75;;;12.88;;
29712;SDS011;16623;53.632;10.016;2024-02-28T07:38:09;27.50;;;15.35;;
29712;SDS011;16623;53.632;10.016;2024-02-28T07:40:35;26.80;;;14.00;;
29712;SDS011;16623;53.632;10.016;2024-02-28T07:43:01;29.33;;;13.75;;
29712;SDS011;16623;53.632;10.016;2024-02-28T07:45:26;27.60;;;15.25;;
29712;SDS011;16623;53.632;10.016;2024-02-28T07:47:52;25.83;;;14.32;;
29712;SDS011;16623;53.632;10.016;2024-02-28T07:50:17;29.13;;;14.57;;
29712;SDS011;16623;53.632;10.016;2024-02-28T07:52:43;27.15;;;15.32;;
29712;SDS011;16623;53.632;10.016;2024-02-28T07:55:08;29.85;;;14.63;;
29712;SDS011;16623;53.632;10.016;2024-02-28T07:57:34;29.38;;;15.77;;
29712;SDS011;16623;53.632;10.016;2024-02-28T07:59:59;28.90;;;14.23;;
29712;SDS011;16623;53.632;10.016;2024-02-28T08:02:25;27.88;;;15.70;;
29712;SDS011;16623;53.632;10.016;2024-02-28T08:04:50;28.73;;;15.25;;
29712;SDS011;16623;53.632;10.016;2024-02-28T08:07:16;31.17;;;15.95;;
29712;SDS011;16623;53.632;10.016;2024-02-28T08:09:41;30.35;;;15.48;;
29712;SDS011;16623;53.632;10.016;2024-02-28T08:12:09;28.83;;;15.77;;
29712;SDS011;16623;53.632;10.016;2024-02-28T08:14:35;29.27;;;15.23;;
29712;SDS011;16623;53.632;10.016;2024-02-28T08:17:00;31.83;;;16.85;;
29712;SDS011;16623;53.632;10.016;2024-02-28T08:19:25;39.42;;;18.48;;
29712;SDS011;16623;53.632;10.016;2024-02-28T08:21:51;35.65;;;16.63;;
29712;SDS011;16623;53.632;10.016;2024-02-28T08:24:16;31.00;;;17.25;;
29712;SDS011;16623;53.632;10.016;2024-02-28T08:26:42;32.33;;;18.08;;
29712;SDS011;16623;53.632;10.016;2024-02-28T08:29:12;30.40;;;17.08;;
29712;SDS011;16623;53.632;10.016;2024-02-28T08:31:41;41.30;;;18.10;;
29712;SDS011;16623;53.632;10.016;2024-02-28T08:34:08;32.17;;;16.88;;
29712;SDS011;16623;53.632;10.016;2024-02-28T08:36:34;38.92;;;20.77;;
29712;SDS011;16623;53.632;10.016;2024-02-28T08:39:00;33.00;;;18.60;;
29712;SDS011;16623;53.632;10.016;2024-02-28T08:41:25;44.70;;;20.23;;
29712;SDS011;16623;53.632;10.016;2024-02-28T08:43:51;38.53;;;21.17;;
29712;SDS011;16623;53.632;10.016;2024-02-28T08:46:16;46.28;;;21.25;;
29712;SDS011;16623;53.632;10.016;2024-02-28T08:48:42;39.22;;;21.52;;
29712;SDS011;16623;53.632;10.016;2024-02-28T08:51:08;44.60;;;21.38;;
29712;SDS011;16623;53.632;10.016;2024-02-28T08:53:33;40.78;;;21.90;;
29712;SDS011;16623;53.632;10.016;2024-02-28T08:55:59;47.72;;;23.08;;
29712;SDS011;16623;53.632;10.016;2024-02-28T08:58:24;43.75;;;22.85;;
29712;SDS011;16623;53.632;10.016;2024-02-28T09:00:50;45.60;;;23.33;;
29712;SDS011;16623;53.632;10.016;2024-02-28T09:03:16;43.50;;;22.88;;
29712;SDS011;16623;53.632;10.016;2024-02-28T09:05:42;46.05;;;23.38;;
29712;SDS011;16623;53.632;10.016;2024-02-28T09:08:07;42.75;;;22.42;;
29712;SDS011;16623;53.632;10.016;2024-02-28T09:10:33;49.58;;;23.83;;
29712;SDS011;16623;53.632;10.016;2024-02-28T09:12:59;43.78;;;22.92;;
29712;SDS011;16623;53.632;10.016;2024-02-28T09:15:25;48.53;;;23.63;;
29712;SDS011;16623;53.632;10.016;2024-02-28T09:17:51;42.03;;;24.25;;
29712;SDS011;16623;53.632;10.016;2024-02-28T09:20:17;45.55;;;23.00;;
29712;SDS011;16623;53.632;10.016;2024-02-28T09:22:42;43.90;;;21.80;;
29712;SDS011;16623;53.632;10.016;2024-02-28T09:25:08;42.63;;;23.42;;
29712;SDS011;16623;53.632;10.016;2024-02-28T09:27:34;41.90;;;21.38;;
29712;SDS011;16623;53.632;10.016;2024-02-28T09:30:01;42.47;;;20.65;;
29712;SDS011;16623;53.632;10.016;2024-02-28T09:32:27;38.40;;;20.80;;
29712;SDS011;16623;53.632;10.016;2024-02-28T09:34:52;39.58;;;21.90;;
29712;SDS011;16623;53.632;10.016;2024-02-28T09:37:18;41.55;;;20.42;;
29712;SDS011;16623;53.632;10.016;2024-02-28T09:39:46;33.65;;;17.98;;
29712;SDS011;16623;53.632;10.016;2024-02-28T09:42:11;34.78;;;19.58;;
29712;SDS011;16623;53.632;10.016;2024-02-28T09:44:39;38.67;;;21.48;;
29712;SDS011;16623;53.632;10.016;2024-02-28T09:47:05;39.80;;;21.63;;
29712;SDS011;16623;53.632;10.016;2024-02-28T09:49:31;39.70;;;20.30;;
29712;SDS011;16623;53.632;10.016;2024-02-28T09:51:57;42.47;;;19.95;;
29712;SDS011;16623;53.632;10.016;2024-02-28T09:54:25;36.42;;;19.65;;
29712;SDS011;16623;53.632;10.016;2024-02-28T09:56:50;37.38;;;19.98;;
29712;SDS011;16623;53.632;10.016;2024-02-28T09:59:18;32.42;;;18.38;;
29712;SDS011;16623;53.632;10.016;2024-02-28T10:01:45;37.83;;;18.00;;
29712;SDS011;16623;53.632;10.016;2024-02-28T10:04:15;34.63;;;18.08;;
29712;SDS011;16623;53.632;10.016;2024-02-28T10:06:40;33.72;;;18.73;;
29712;SDS011;16623;53.632;10.016;2024-02-28T10:09:06;36.17;;;18.33;;
29712;SDS011;16623;53.632;10.016;2024-02-28T10:11:32;30.83;;;17.27;;
29712;SDS011;16623;53.632;10.016;2024-02-28T10:14:00;33.20;;;18.48;;
29712;SDS011;16623;53.632;10.016;2024-02-28T10:16:27;38.35;;;18.88;;
29712;SDS011;16623;53.632;10.016;2024-02-28T10:18:53;32.13;;;18.38;;
29712;SDS011;16623;53.632;10.016;2024-02-28T10:21:18;36.03;;;18.33;;
29712;SDS011;16623;53.632;10.016;2024-02-28T10:23:44;34.00;;;17.55;;
29712;SDS011;16623;53.632;10.016;2024-02-28T10:26:13;36.05;;;17.55;;
29712;SDS011;16623;53.632;10.016;2024-02-28T10:28:39;28.05;;;14.25;;
29712;SDS011;16623;53.632;10.016;2024-02-28T10:31:06;28.27;;;16.27;;
29712;SDS011;16623;53.632;10.016;2024-02-28T10:33:33;31.85;;;16.30;;
29712;SDS011;16623;53.632;10.016;2024-02-28T10:36:00;29.95;;;15.65;;
29712;SDS011;16623;53.632;10.016;2024-02-28T10:38:28;31.00;;;16.23;;
29712;SDS011;16623;53.632;10.016;2024-02-28T10:40:56;27.42;;;16.55;;
29712;SDS011;16623;53.632;10.016;2024-02-28T10:43:22;28.17;;;16.48;;
29712;SDS011;16623;53.632;10.016;2024-02-28T10:45:50;31.30;;;15.95;;
29712;SDS011;16623;53.632;10.016;2024-02-28T10:48:16;29.55;;;16.48;;
29712;SDS011;16623;53.632;10.016;2024-02-28T10:50:43;33.10;;;17.08;;
29712;SDS011;16623;53.632;10.016;2024-02-28T10:53:12;29.77;;;16.48;;
29712;SDS011;16623;53.632;10.016;2024-02-28T10:55:40;29.67;;;16.60;;
29712;SDS011;16623;53.632;10.016;2024-02-28T10:58:07;27.45;;;15.77;;
29712;SDS011;16623;53.632;10.016;2024-02-28T11:00:35;29.55;;;15.65;;
29712;SDS011;16623;53.632;10.016;2024-02-28T11:03:03;30.90;;;16.33;;
29712;SDS011;16623;53.632;10.016;2024-02-28T11:05:36;30.13;;;17.65;;
29712;SDS011;16623;53.632;10.016;2024-02-28T11:08:04;27.43;;;16.50;;
29712;SDS011;16623;53.632;10.016;2024-02-28T11:10:33;31.40;;;16.90;;
29712;SDS011;16623;53.632;10.016;2024-02-28T11:12:58;31.15;;;15.32;;
29712;SDS011;16623;53.632;10.016;2024-02-28T11:15:24;33.45;;;17.85;;
29712;SDS011;16623;53.632;10.016;2024-02-28T11:17:53;36.10;;;15.43;;
29712;SDS011;16623;53.632;10.016;2024-02-28T11:20:19;31.95;;;16.08;;
29712;SDS011;16623;53.632;10.016;2024-02-28T11:22:47;28.55;;;15.27;;
29712;SDS011;16623;53.632;10.016;2024-02-28T11:25:13;29.88;;;15.93;;
29712;SDS011;16623;53.632;10.016;2024-02-28T11:27:48;35.67;;;16.50;;
29712;SDS011;16623;53.632;10.016;2024-02-28T11:30:14;29.98;;;15.02;;
29712;SDS011;16623;53.632;10.016;2024-02-28T11:32:40;27.77;;;14.70;;
29712;SDS011;16623;53.632;10.016;2024-02-28T11:35:05;25.60;;;13.05;;
29712;SDS011;16623;53.632;10.016;2024-02-28T11:37:31;24.70;;;12.32;;
29712;SDS011;16623;53.632;10.016;2024-02-28T11:39:58;25.65;;;13.60;;
29712;SDS011;16623;53.632;10.016;2024-02-28T11:42:23;28.48;;;15.35;;
29712;SDS011;16623;53.632;10.016;2024-02-28T11:44:55;33.33;;;14.80;;
29712;SDS011;16623;53.632;10.016;2024-02-28T11:47:22;28.52;;;15.32;;
29712;SDS011;16623;53.632;10.016;2024-02-28T11:49:48;26.27;;;13.70;;
29712;SDS011;16623;53.632;10.016;2024-02-28T11:52:14;27.10;;;14.38;;
29712;SDS011;16623;53.632;10.016;2024-02-28T11:54:40;23.67;;;13.63;;
29712;SDS011;16623;53.632;10.016;2024-02-28T11:57:07;27.92;;;15.15;;
29712;SDS011;16623;53.632;10.016;2024-02-28T11:59:33;34.13;;;15.13;;
29712;SDS011;16623;53.632;10.016;2024-02-28T12:01:59;27.45;;;15.07;;
29712;SDS011;16623;53.632;10.016;2024-02-28T12:04:25;32.13;;;15.27;;
29712;SDS011;16623;53.632;10.016;2024-02-28T12:06:50;28.65;;;15.38;;
29712;SDS011;16623;53.632;10.016;2024-02-28T12:09:16;32.00;;;15.40;;
29712;SDS011;16623;53.632;10.016;2024-02-28T12:11:43;24.80;;;14.75;;
29712;SDS011;16623;53.632;10.016;2024-02-28T12:14:09;27.08;;;14.55;;
29712;SDS011;16623;53.632;10.016;2024-02-28T12:16:41;31.75;;;14.38;;
29712;SDS011;16623;53.632;10.016;2024-02-28T12:19:10;26.88;;;15.02;;
29712;SDS011;16623;53.632;10.016;2024-02-28T12:21:40;32.55;;;16.50;;
29712;SDS011;16623;53.632;10.016;2024-02-28T12:24:08;29.75;;;15.70;;
29712;SDS011;16623;53.632;10.016;2024-02-28T12:26:35;33.30;;;15.25;;
29712;SDS011;16623;53.632;10.016;2024-02-28T12:29:01;31.45;;;16.15;;
29712;SDS011;16623;53.632;10.016;2024-02-28T12:31:27;29.33;;;15.40;;
29712;SDS011;16623;53.632;10.016;2024-02-28T12:33:53;29.23;;;15.82;;
29712;SDS011;16623;53.632;10.016;2024-02-28T12:36:19;27.75;;;14.82;;
29712;SDS011;16623;53.632;10.016;2024-02-28T12:38:45;33.08;;;16.85;;
29712;SDS011;16623;53.632;10.016;2024-02-28T12:41:12;32.55;;;15.82;;
29712;SDS011;16623;53.632;10.016;2024-02-28T12:43:38;30.70;;;16.75;;
29712;SDS011;16623;53.632;10.016;2024-02-28T12:46:04;40.80;;;17.67;;
29712;SDS011;16623;53.632;10.016;2024-02-28T12:48:30;29.45;;;15.88;;
29712;SDS011;16623;53.632;10.016;2024-02-28T12:50:56;39.70;;;18.15;;
29712;SDS011;16623;53.632;10.016;2024-02-28T12:53:22;32.05;;;15.50;;
29712;SDS011;16623;53.632;10.016;2024-02-28T12:55:48;31.30;;;16.25;;
29712;SDS011;16623;53.632;10.016;2024-02-28T12:58:13;32.35;;;16.10;;
29712;SDS011;16623;53.632;10.016;2024-02-28T13:00:39;31.08;;;15.32;;
29712;SDS011;16623;53.632;10.016;2024-02-28T13:03:04;30.83;;;14.65;;
29712;SDS011;16623;53.632;10.016;2024-02-28T13:05:31;29.90;;;13.15;;
29712;SDS011;16623;53.632;10.016;2024-02-28T13:07:57;26.90;;;13.30;;
29712;SDS011;16623;53.632;10.016;2024-02-28T13:10:22;28.08;;;13.15;;
29712;SDS011;16623;53.632;10.016;2024-02-28T13:12:48;25.63;;;14.30;;
29712;SDS011;16623;53.632;10.016;2024-02-28T13:15:14;26.35;;;12.23;;
29712;SDS011;16623;53.632;10.016;2024-02-28T13:17:39;26.73;;;13.05;;
29712;SDS011;16623;53.632;10.016;2024-02-28T13:20:07;25.95;;;12.63;;
29712;SDS011;16623;53.632;10.016;2024-02-28T13:22:33;26.65;;;11.80;;
29712;SDS011;16623;53.632;10.016;2024-02-28T13:24:58;30.38;;;13.07;;
29712;SDS011;16623;53.632;10.016;2024-02-28T13:27:25;21.30;;;11.70;;
29712;SDS011;16623;53.632;10.016;2024-02-28T13:29:51;23.85;;;13.68;;
29712;SDS011;16623;53.632;10.016;2024-02-28T13:32:16;25.50;;;12.43;;
29712;SDS011;16623;53.632;10.016;2024-02-28T13:34:42;28.33;;;13.40;;
29712;SDS011;16623;53.632;10.016;2024-02-28T13:37:09;23.50;;;12.48;;
29712;SDS011;16623;53.632;10.016;2024-02-28T13:39:35;21.15;;;10.95;;
29712;SDS011;16623;53.632;10.016;2024-02-28T13:42:00;23.25;;;12.98;;
29712;SDS011;16623;53.632;10.016;2024-02-28T13:44:28;28.42;;;13.75;;
29712;SDS011;16623;53.632;10.016;2024-02-28T13:46:54;28.35;;;13.38;;
29712;SDS011;16623;53.632;10.016;2024-02-28T13:49:20;24.38;;;12.43;;
29712;SDS011;16623;53.632;10.016;2024-02-28T13:51:46;26.55;;;13.85;;
29712;SDS011;16623;53.632;10.016;2024-02-28T13:54:12;29.65;;;14.05;;
29712;SDS011;16623;53.632;10.016;2024-02-28T13:56:38;28.00;;;13.50;;
29712;SDS011;16623;53.632;10.016;2024-02-28T13:59:04;28.92;;;12.25;;
29712;SDS011;16623;53.632;10.016;2024-02-28T14:01:29;25.77;;;13.55;;
29712;SDS011;16623;53.632;10.016;2024-02-28T14:03:55;28.27;;;13.40;;